createdAt,value
2019-05-18T00:02:16.242Z,14.19
2019-05-18T00:04:42.204Z,14.31
2019-05-18T00:07:08.049Z,14.19
2019-05-18T00:09:33.876Z,14.31
2019-05-18T00:11:59.723Z,14.19
2019-05-18T00:14:25.579Z,14.31
2019-05-18T00:16:51.423Z,14.13
2019-05-18T00:19:17.241Z,14.06
2019-05-18T00:21:43.106Z,14.13
2019-05-18T00:24:09.252Z,14.19
2019-05-18T00:26:35.185Z,14.19
2019-05-18T00:29:01.008Z,14.00
2019-05-18T00:31:26.850Z,14.13
2019-05-18T00:33:52.679Z,13.94
2019-05-18T00:36:18.555Z,13.88
2019-05-18T00:38:44.403Z,14.06
2019-05-18T00:41:10.224Z,14.13
2019-05-18T00:43:36.048Z,13.94
2019-05-18T00:46:02.987Z,14.00
2019-05-18T00:48:28.815Z,13.88
2019-05-18T00:50:54.691Z,13.81
2019-05-18T00:53:20.515Z,13.81
2019-05-18T00:55:46.347Z,13.88
2019-05-18T00:58:12.192Z,13.69
2019-05-18T01:00:38.016Z,13.75
2019-05-18T01:03:03.860Z,13.69
2019-05-18T01:05:29.793Z,13.81
2019-05-18T01:07:55.633Z,13.81
2019-05-18T01:10:21.451Z,13.81
2019-05-18T01:12:47.338Z,13.88
2019-05-18T01:15:13.503Z,13.56
2019-05-18T01:17:39.361Z,13.62
2019-05-18T01:20:05.813Z,13.50
2019-05-18T01:22:31.717Z,13.62
2019-05-18T01:24:58.655Z,13.69
2019-05-18T01:27:24.599Z,13.56
2019-05-18T01:29:50.475Z,13.50
2019-05-18T01:32:16.446Z,13.69
2019-05-18T01:34:42.316Z,13.50
2019-05-18T01:37:08.233Z,13.44
2019-05-18T01:39:34.060Z,13.56
2019-05-18T01:41:59.941Z,13.56
2019-05-18T01:44:25.851Z,13.50
2019-05-18T01:46:51.696Z,13.56
2019-05-18T01:49:17.538Z,13.44
2019-05-18T01:51:43.365Z,13.62
2019-05-18T01:54:09.229Z,13.44
2019-05-18T01:56:35.194Z,13.38
2019-05-18T01:59:01.049Z,13.31
2019-05-18T02:01:26.883Z,13.25
2019-05-18T02:03:52.775Z,13.38
2019-05-18T02:06:18.638Z,13.38
2019-05-18T02:08:44.552Z,13.38
2019-05-18T02:11:10.378Z,13.19
2019-05-18T02:13:36.319Z,13.19
2019-05-18T02:16:02.234Z,13.25
2019-05-18T02:18:29.273Z,13.31
2019-05-18T02:20:55.244Z,13.44
2019-05-18T02:23:21.205Z,13.13
2019-05-18T02:25:47.133Z,12.94
2019-05-18T02:28:13.095Z,13.06
2019-05-18T02:30:39.110Z,13.00
2019-05-18T02:33:05.071Z,13.19
2019-05-18T02:35:31.062Z,12.88
2019-05-18T02:37:58.947Z,12.94
2019-05-18T02:40:25.201Z,13.13
2019-05-18T02:42:51.067Z,13.06
2019-05-18T02:45:17.010Z,12.88
2019-05-18T02:47:42.962Z,13.00
2019-05-18T02:50:09.106Z,12.88
2019-05-18T02:52:34.950Z,13.06
2019-05-18T02:55:00.833Z,13.00
2019-05-18T02:57:27.359Z,12.94
2019-05-18T02:59:53.406Z,12.88
2019-05-18T03:02:19.267Z,12.94
2019-05-18T03:04:45.218Z,13.00
2019-05-18T03:07:11.054Z,12.88
2019-05-18T03:09:36.954Z,13.00
2019-05-18T03:12:02.806Z,12.88
2019-05-18T03:14:28.850Z,12.81
2019-05-18T03:16:54.783Z,12.81
2019-05-18T03:19:20.612Z,12.75
2019-05-18T03:21:46.436Z,12.75
2019-05-18T03:24:12.304Z,12.81
2019-05-18T03:26:38.127Z,12.94
2019-05-18T03:29:03.962Z,12.88
2019-05-18T03:31:29.827Z,12.94
2019-05-18T03:33:55.659Z,12.69
2019-05-18T03:36:21.602Z,12.81
2019-05-18T03:38:47.444Z,12.94
2019-05-18T03:41:13.322Z,12.94
2019-05-18T03:43:39.247Z,12.81
2019-05-18T03:46:05.106Z,13.06
2019-05-18T03:48:31.022Z,12.88
2019-05-18T03:50:56.906Z,12.69
2019-05-18T03:53:22.833Z,12.63
2019-05-18T03:55:48.714Z,12.81
2019-05-18T03:58:14.751Z,12.75
2019-05-18T04:00:41.695Z,12.88
2019-05-18T04:03:07.672Z,12.81
2019-05-18T04:05:33.620Z,12.81
2019-05-18T04:07:59.463Z,12.94
2019-05-18T04:10:25.914Z,12.75
2019-05-18T04:12:51.947Z,12.88
2019-05-18T04:15:17.797Z,12.81
2019-05-18T04:17:43.615Z,12.94
2019-05-18T04:20:09.702Z,12.75
2019-05-18T04:22:35.527Z,12.88
2019-05-18T04:25:01.377Z,12.94
2019-05-18T04:27:27.210Z,13.00
2019-05-18T04:29:53.073Z,13.00
2019-05-18T04:32:18.997Z,13.00
2019-05-18T04:34:44.938Z,13.13
2019-05-18T04:37:10.751Z,13.06
2019-05-18T04:39:36.967Z,13.00
2019-05-18T04:42:02.915Z,13.13
2019-05-18T04:44:28.883Z,13.19
2019-05-18T04:46:54.747Z,13.19
2019-05-18T04:49:20.619Z,13.25
2019-05-18T04:51:46.568Z,13.19
2019-05-18T04:54:12.555Z,13.13
2019-05-18T04:56:42.156Z,13.38
2019-05-18T04:59:06.616Z,13.13
2019-05-18T05:01:33.001Z,13.25
2019-05-18T05:03:59.192Z,13.06
2019-05-18T05:06:25.416Z,13.06
2019-05-18T05:08:51.442Z,13.06
2019-05-18T05:11:17.617Z,13.19
2019-05-18T05:13:43.871Z,13.31
2019-05-18T05:16:11.018Z,13.25
2019-05-18T05:18:36.891Z,13.50
2019-05-18T05:21:02.745Z,13.56
2019-05-18T05:23:28.615Z,13.50
2019-05-18T05:25:54.526Z,13.69
2019-05-18T05:28:20.444Z,13.62
2019-05-18T05:30:46.311Z,13.75
2019-05-18T05:33:12.249Z,13.81
2019-05-18T05:35:38.487Z,13.88
2019-05-18T05:38:04.422Z,13.94
2019-05-18T05:40:30.263Z,13.94
2019-05-18T05:42:56.111Z,13.94
2019-05-18T05:45:22.488Z,14.06
2019-05-18T05:47:48.311Z,14.00
2019-05-18T05:50:16.147Z,14.06
2019-05-18T05:52:42.118Z,14.25
2019-05-18T05:55:08.024Z,14.25
2019-05-18T05:57:33.945Z,14.31
2019-05-18T05:59:59.798Z,14.44
2019-05-18T06:02:25.652Z,14.38
2019-05-18T06:04:51.523Z,14.44
2019-05-18T06:07:17.504Z,14.50
2019-05-18T06:09:43.354Z,14.63
2019-05-18T06:12:09.199Z,14.69
2019-05-18T06:14:35.046Z,14.69
2019-05-18T06:17:00.985Z,14.75
2019-05-18T06:19:27.075Z,14.81
2019-05-18T06:21:53.125Z,15.13
2019-05-18T06:24:19.078Z,15.06
2019-05-18T06:26:44.955Z,15.06
2019-05-18T06:29:10.822Z,15.44
2019-05-18T06:31:36.738Z,15.19
2019-05-18T06:34:02.568Z,15.38
2019-05-18T06:36:28.545Z,15.31
2019-05-18T06:38:54.434Z,15.50
2019-05-18T06:41:20.420Z,15.63
2019-05-18T06:43:46.271Z,15.50
2019-05-18T06:46:12.156Z,15.56
2019-05-18T06:48:38.034Z,15.63
2019-05-18T06:51:07.254Z,15.69
2019-05-18T06:53:31.678Z,16.00
2019-05-18T06:55:57.732Z,15.88
2019-05-18T06:58:24.400Z,15.88
2019-05-18T07:00:50.342Z,16.19
2019-05-18T07:03:16.201Z,16.06
2019-05-18T07:05:42.103Z,16.37
2019-05-18T07:08:08.052Z,16.25
2019-05-18T07:10:33.911Z,16.12
2019-05-18T07:12:59.842Z,16.19
2019-05-18T07:15:25.706Z,16.25
2019-05-18T07:17:51.562Z,16.25
2019-05-18T07:20:17.414Z,16.37
2019-05-18T07:22:45.254Z,16.37
2019-05-18T07:25:11.278Z,18.19
2019-05-18T07:27:37.129Z,17.94
2019-05-18T07:30:07.706Z,17.81
2019-05-18T07:32:33.657Z,17.69
2019-05-18T07:34:59.606Z,17.69
2019-05-18T07:37:25.480Z,17.75
2019-05-18T07:39:51.390Z,17.81
2019-05-18T07:42:17.302Z,17.94
2019-05-18T07:44:43.235Z,17.94
2019-05-18T07:47:09.074Z,17.94
2019-05-18T07:49:34.907Z,17.94
2019-05-18T07:52:00.739Z,18.06
2019-05-18T07:54:26.598Z,18.12
2019-05-18T07:56:52.513Z,18.06
2019-05-18T07:59:19.993Z,18.19
2019-05-18T08:01:46.000Z,18.12
2019-05-18T08:04:11.872Z,18.00
2019-05-18T08:06:37.711Z,17.87
2019-05-18T08:09:05.954Z,18.06
2019-05-18T08:11:38.918Z,17.94
2019-05-18T08:14:04.980Z,18.00
2019-05-18T08:16:30.828Z,17.81
2019-05-18T08:18:58.190Z,18.19
2019-05-18T08:21:24.304Z,18.00
2019-05-18T08:23:50.166Z,17.87
2019-05-18T08:26:16.118Z,18.25
2019-05-18T08:28:41.976Z,18.19
2019-05-18T08:31:07.922Z,18.12
2019-05-18T08:33:33.786Z,18.12
2019-05-18T08:35:59.606Z,18.25
2019-05-18T08:38:25.478Z,18.31
2019-05-18T08:40:51.391Z,18.37
2019-05-18T08:43:17.263Z,18.56
2019-05-18T08:45:43.144Z,18.56
2019-05-18T08:48:08.991Z,19.12
2019-05-18T08:50:34.879Z,19.06
2019-05-18T08:53:00.723Z,19.31
2019-05-18T08:55:26.589Z,19.06
2019-05-18T08:57:52.426Z,19.06
2019-05-18T09:00:18.384Z,19.19
2019-05-18T09:02:44.208Z,19.00
2019-05-18T09:05:10.154Z,18.94
2019-05-18T09:07:36.922Z,18.81
2019-05-18T09:10:04.687Z,18.87
2019-05-18T09:12:30.551Z,19.00
2019-05-18T09:14:56.543Z,19.06
2019-05-18T09:17:22.499Z,19.25
2019-05-18T09:19:48.631Z,19.44
2019-05-18T09:22:22.922Z,19.75
2019-05-18T09:24:42.215Z,19.50
2019-05-18T09:27:10.697Z,20.06
2019-05-18T09:29:36.717Z,20.06
2019-05-18T09:32:02.851Z,20.25
2019-05-18T09:34:28.691Z,19.81
2019-05-18T09:36:54.544Z,19.75
2019-05-18T09:39:20.396Z,19.94
2019-05-18T09:41:46.437Z,20.12
2019-05-18T09:44:12.280Z,19.94
2019-05-18T09:46:38.171Z,20.06
2019-05-18T09:49:04.125Z,20.06
2019-05-18T09:51:30.031Z,20.19
2019-05-18T09:53:55.946Z,20.19
2019-05-18T09:56:24.077Z,20.25
2019-05-18T09:58:49.911Z,20.56
2019-05-18T10:01:15.767Z,20.44
2019-05-18T10:03:41.583Z,20.62
2019-05-18T10:06:07.468Z,20.69
2019-05-18T10:08:33.404Z,20.88
2019-05-18T10:10:59.247Z,20.88
2019-05-18T10:13:25.118Z,20.75
2019-05-18T10:15:51.055Z,20.69
2019-05-18T10:18:16.920Z,20.69
2019-05-18T10:20:43.083Z,20.69
2019-05-18T10:23:12.811Z,20.69
2019-05-18T10:25:38.865Z,20.75
2019-05-18T10:28:04.704Z,20.81
2019-05-18T10:30:30.559Z,20.94
2019-05-18T10:32:56.380Z,21.25
2019-05-18T10:35:22.256Z,21.37
2019-05-18T10:37:48.240Z,21.62
2019-05-18T10:40:14.271Z,21.50
2019-05-18T10:42:40.422Z,21.44
2019-05-18T10:45:07.021Z,21.50
2019-05-18T10:47:32.977Z,21.37
2019-05-18T10:52:34.154Z,21.69
2019-05-18T10:55:00.164Z,21.62
2019-05-18T10:57:26.149Z,21.69
2019-05-18T10:59:51.978Z,21.69
2019-05-18T11:02:17.827Z,21.87
2019-05-18T11:04:43.655Z,21.50
2019-05-18T11:07:09.561Z,21.56
2019-05-18T11:09:35.408Z,21.56
2019-05-18T11:12:01.338Z,21.75
2019-05-18T11:14:27.194Z,21.31
2019-05-18T11:16:53.100Z,21.44
2019-05-18T11:19:19.028Z,21.75
2019-05-18T11:21:44.888Z,21.94
2019-05-18T11:24:10.807Z,21.94
2019-05-18T11:26:36.679Z,21.81
2019-05-18T11:33:56.924Z,22.25
2019-05-18T11:36:22.771Z,22.25
2019-05-18T11:38:48.620Z,22.00
2019-05-18T11:41:14.450Z,21.94
2019-05-18T11:43:40.336Z,21.75
2019-05-18T11:46:06.172Z,21.75
2019-05-18T11:48:32.334Z,21.81
2019-05-18T11:50:58.174Z,21.87
2019-05-18T11:53:24.115Z,21.69
2019-05-18T11:55:50.027Z,21.81
2019-05-18T11:58:15.862Z,21.81
2019-05-18T12:00:41.704Z,21.75
2019-05-18T12:03:07.549Z,21.87
2019-05-18T12:05:33.373Z,21.81
2019-05-18T12:07:59.595Z,21.87
2019-05-18T12:10:25.454Z,22.44
2019-05-18T12:12:51.279Z,22.37
2019-05-18T12:15:17.551Z,22.50
2019-05-18T12:17:43.522Z,22.62
2019-05-18T12:20:10.763Z,22.81
2019-05-18T12:22:36.643Z,22.81
2019-05-18T12:25:04.879Z,22.69
2019-05-18T12:27:30.842Z,22.62
2019-05-18T12:29:56.667Z,22.69
2019-05-18T12:32:22.553Z,22.75
2019-05-18T12:34:49.243Z,22.62
2019-05-18T12:37:22.044Z,22.44
2019-05-18T12:39:48.604Z,22.44
2019-05-18T12:42:14.447Z,22.50
2019-05-18T12:44:40.289Z,22.44
2019-05-18T12:47:06.462Z,22.50
2019-05-18T12:49:32.360Z,22.56
2019-05-18T12:51:58.207Z,22.81
2019-05-18T12:54:29.559Z,22.69
2019-05-18T12:56:51.821Z,22.75
2019-05-18T12:59:17.749Z,22.75
2019-05-18T13:01:43.594Z,22.81
2019-05-18T13:04:09.421Z,22.87
2019-05-18T13:06:35.305Z,22.87
2019-05-18T13:09:01.254Z,22.94
2019-05-18T13:11:27.151Z,22.94
2019-05-18T13:13:52.967Z,23.00
2019-05-18T13:16:18.822Z,23.00
2019-05-18T13:18:44.669Z,23.06
2019-05-18T13:21:10.569Z,23.06
2019-05-18T13:23:36.513Z,23.00
2019-05-18T13:26:02.359Z,23.00
2019-05-18T13:28:28.287Z,23.06
2019-05-18T13:30:54.159Z,23.06
2019-05-18T13:33:19.990Z,23.06
2019-05-18T13:35:45.823Z,23.06
2019-05-18T13:38:11.675Z,23.06
2019-05-18T13:40:37.559Z,23.06
2019-05-18T13:43:03.517Z,23.00
2019-05-18T13:45:29.442Z,23.06
2019-05-18T13:47:55.260Z,23.06
2019-05-18T13:50:21.707Z,23.06
2019-05-18T13:52:47.939Z,22.87
2019-05-18T13:55:13.881Z,22.87
2019-05-18T13:57:39.793Z,22.87
2019-05-18T14:00:08.595Z,22.81
2019-05-18T14:02:34.396Z,22.75
2019-05-18T14:05:00.345Z,22.81
2019-05-18T14:07:26.167Z,22.81
2019-05-18T14:09:52.357Z,22.81
2019-05-18T14:12:18.216Z,22.94
2019-05-18T14:14:45.315Z,22.94
2019-05-18T14:17:11.251Z,22.94
2019-05-18T14:19:37.365Z,22.87
2019-05-18T14:22:03.220Z,22.87
2019-05-18T14:24:29.280Z,22.75
2019-05-18T14:26:55.179Z,22.81
2019-05-18T14:29:21.013Z,22.81
2019-05-18T14:31:46.867Z,22.81
2019-05-18T14:34:13.208Z,22.87
2019-05-18T14:36:39.086Z,22.94
2019-05-18T14:39:05.053Z,22.94
2019-05-18T14:41:30.881Z,23.06
2019-05-18T14:43:56.733Z,23.00
2019-05-18T14:46:22.565Z,23.06
2019-05-18T14:48:48.407Z,22.94
2019-05-18T14:51:14.252Z,23.06
2019-05-18T14:53:40.085Z,23.19
2019-05-18T14:56:14.958Z,23.31
2019-05-18T14:58:40.815Z,23.38
2019-05-18T15:01:06.763Z,23.44
2019-05-18T15:03:32.692Z,23.56
2019-05-18T15:05:58.585Z,23.69
2019-05-18T15:08:24.457Z,23.31
2019-05-18T15:10:50.395Z,23.25
2019-05-18T15:13:16.297Z,23.31
2019-05-18T15:15:42.166Z,23.25
2019-05-18T15:18:07.990Z,23.25
2019-05-18T15:20:33.904Z,23.25
2019-05-18T15:22:59.816Z,23.19
2019-05-18T15:25:25.663Z,23.25
2019-05-18T15:27:51.484Z,23.12
2019-05-18T15:30:17.645Z,23.19
2019-05-18T15:32:43.488Z,23.25
2019-05-18T15:35:09.463Z,23.19
2019-05-18T15:37:37.124Z,23.31
2019-05-18T15:40:04.445Z,23.31
2019-05-18T15:42:30.402Z,23.31
2019-05-18T15:44:56.313Z,23.31
2019-05-18T15:47:22.143Z,23.31
2019-05-18T15:49:47.990Z,23.19
2019-05-18T15:52:13.824Z,23.19
2019-05-18T15:54:39.709Z,23.12
2019-05-18T15:57:05.551Z,23.06
2019-05-18T15:59:31.397Z,23.12
2019-05-18T16:01:57.216Z,23.12
2019-05-18T16:04:23.111Z,23.06
2019-05-18T16:06:49.310Z,23.00
2019-05-18T16:09:15.164Z,22.87
2019-05-18T16:11:40.987Z,22.94
2019-05-18T16:14:06.887Z,22.94
2019-05-18T16:16:32.866Z,22.75
2019-05-18T16:18:58.737Z,22.81
2019-05-18T16:21:24.707Z,22.75
2019-05-18T16:23:50.682Z,22.75
2019-05-18T16:26:21.576Z,22.87
2019-05-18T16:28:44.320Z,22.62
2019-05-18T16:31:10.366Z,22.69
2019-05-18T16:33:36.326Z,22.69
2019-05-18T16:36:02.565Z,22.69
2019-05-18T16:38:28.548Z,22.62
2019-05-18T16:40:56.349Z,22.62
2019-05-18T16:43:22.315Z,22.56
2019-05-18T16:45:48.322Z,22.62
2019-05-18T16:48:14.170Z,22.56
2019-05-18T16:50:40.370Z,22.56
2019-05-18T16:53:06.299Z,22.56
2019-05-18T16:55:32.502Z,22.56
2019-05-18T16:57:58.450Z,22.56
2019-05-18T17:00:24.458Z,22.44
2019-05-18T17:02:50.559Z,22.50
2019-05-18T17:05:16.644Z,22.56
2019-05-18T17:07:42.607Z,22.56
2019-05-18T17:10:10.002Z,22.56
2019-05-18T17:12:35.911Z,22.56
2019-05-18T17:15:06.462Z,22.50
2019-05-18T17:17:35.252Z,22.50
2019-05-18T17:20:00.160Z,22.56
2019-05-18T17:22:26.322Z,22.56
2019-05-18T17:24:52.398Z,22.56
2019-05-18T17:27:18.271Z,22.56
2019-05-18T17:29:44.166Z,22.44
2019-05-18T17:32:12.552Z,22.37
2019-05-18T17:34:38.672Z,22.31
2019-05-18T17:37:04.766Z,22.31
2019-05-18T17:39:30.787Z,22.25
2019-05-18T17:41:56.688Z,22.25
2019-05-18T17:44:22.911Z,22.25
2019-05-18T17:46:50.474Z,22.25
2019-05-18T17:49:27.985Z,22.25
2019-05-18T17:51:44.134Z,22.25
2019-05-18T17:54:10.032Z,22.25
2019-05-18T17:56:36.077Z,22.25
2019-05-18T17:59:02.250Z,22.19
2019-05-18T18:01:28.373Z,22.19
2019-05-18T18:03:54.415Z,22.06
2019-05-18T18:06:20.397Z,22.06
2019-05-18T18:08:46.371Z,21.94
2019-05-18T18:11:12.268Z,22.00
2019-05-18T18:13:38.169Z,21.94
2019-05-18T18:16:04.065Z,21.87
2019-05-18T18:18:30.112Z,21.87
2019-05-18T18:20:56.096Z,21.81
2019-05-18T18:23:22.115Z,21.87
2019-05-18T18:25:48.014Z,21.87
2019-05-18T18:28:13.907Z,21.75
2019-05-18T18:30:39.804Z,21.75
2019-05-18T18:33:06.829Z,21.62
2019-05-18T18:35:35.707Z,21.62
2019-05-18T18:38:01.557Z,21.69
2019-05-18T18:40:27.978Z,21.56
2019-05-18T18:42:53.968Z,21.50
2019-05-18T18:45:20.129Z,21.44
2019-05-18T18:47:46.104Z,21.31
2019-05-18T18:50:12.183Z,21.19
2019-05-18T18:52:38.042Z,21.00
2019-05-18T18:55:05.666Z,21.00
2019-05-18T18:57:40.805Z,20.94
2019-05-18T18:59:59.344Z,20.75
2019-05-18T19:02:25.167Z,20.81
2019-05-18T19:04:50.997Z,20.75
2019-05-18T19:07:16.866Z,20.69
2019-05-18T19:09:42.693Z,20.62
2019-05-18T19:12:08.609Z,20.50
2019-05-18T19:14:34.444Z,20.37
2019-05-18T19:17:00.620Z,20.31
2019-05-18T19:19:26.461Z,20.31
2019-05-18T19:21:52.671Z,20.19
2019-05-18T19:24:19.394Z,20.06
2019-05-18T19:26:45.286Z,20.06
2019-05-18T19:29:11.229Z,20.06
2019-05-18T19:31:37.172Z,19.94
2019-05-18T19:34:03.116Z,19.87
2019-05-18T19:36:29.046Z,19.75
2019-05-18T19:38:54.863Z,19.69
2019-05-18T19:41:20.725Z,19.62
2019-05-18T19:43:46.862Z,19.50
2019-05-18T19:46:12.714Z,19.50
2019-05-18T19:48:38.658Z,19.37
2019-05-18T19:51:04.484Z,19.31
2019-05-18T19:53:30.406Z,19.12
2019-05-18T19:55:56.688Z,19.19
2019-05-18T19:58:22.537Z,19.00
2019-05-18T20:00:48.354Z,19.12
2019-05-18T20:03:14.233Z,18.94
2019-05-18T20:05:40.054Z,18.87
2019-05-18T20:08:05.932Z,18.81
2019-05-18T20:10:31.876Z,18.87
2019-05-18T20:12:58.888Z,18.87
2019-05-18T20:15:24.718Z,18.69
2019-05-18T20:17:50.550Z,18.69
2019-05-18T20:20:16.677Z,18.69
2019-05-18T20:22:42.528Z,18.56
2019-05-18T20:25:08.556Z,18.56
2019-05-18T20:27:34.400Z,18.56
2019-05-18T20:30:00.224Z,18.50
2019-05-18T20:32:26.065Z,18.44
2019-05-18T20:34:51.880Z,18.31
2019-05-18T20:37:17.734Z,18.31
2019-05-18T20:39:43.557Z,18.25
2019-05-18T20:42:09.396Z,18.25
2019-05-18T20:44:35.279Z,18.19
2019-05-18T20:47:01.183Z,18.12
2019-05-18T20:49:27.033Z,18.12
2019-05-18T20:51:52.986Z,17.87
2019-05-18T20:54:18.849Z,17.94
2019-05-18T20:56:44.783Z,17.75
2019-05-18T20:59:10.731Z,17.94
2019-05-18T21:01:37.078Z,17.81
2019-05-18T21:04:02.910Z,17.69
2019-05-18T21:06:28.851Z,17.75
2019-05-18T21:08:54.707Z,17.81
2019-05-18T21:11:20.539Z,17.62
2019-05-18T21:13:46.410Z,17.62
2019-05-18T21:16:12.305Z,17.56
2019-05-18T21:18:38.147Z,17.62
2019-05-18T21:21:03.968Z,17.37
2019-05-18T21:23:29.823Z,17.50
2019-05-18T21:25:55.950Z,17.50
2019-05-18T21:28:21.810Z,17.50
2019-05-18T21:30:47.731Z,17.37
2019-05-18T21:33:13.571Z,17.31
2019-05-18T21:35:39.773Z,17.12
2019-05-18T21:38:06.091Z,16.94
2019-05-18T21:40:31.954Z,16.94
2019-05-18T21:42:57.787Z,16.81
2019-05-18T21:45:23.611Z,16.81
2019-05-18T21:47:49.466Z,16.75
2019-05-18T21:50:15.408Z,16.75
2019-05-18T21:52:43.475Z,16.75
2019-05-18T21:55:09.419Z,16.62
2019-05-18T21:57:35.266Z,16.62
2019-05-18T22:00:01.233Z,16.62
2019-05-18T22:02:27.180Z,16.62
2019-05-18T22:04:53.003Z,16.62
2019-05-18T22:07:18.850Z,16.50
2019-05-18T22:09:44.698Z,16.44
2019-05-18T22:12:10.521Z,16.37
2019-05-18T22:14:36.346Z,16.44
2019-05-18T22:17:02.220Z,16.50
2019-05-18T22:19:28.140Z,16.37
2019-05-18T22:21:53.975Z,16.44
2019-05-18T22:24:19.830Z,16.25
2019-05-18T22:26:45.655Z,16.44
2019-05-18T22:29:11.486Z,16.31
2019-05-18T22:31:37.336Z,16.31
2019-05-18T22:34:03.271Z,16.44
2019-05-18T22:36:29.110Z,16.31
2019-05-18T22:38:55.379Z,16.31
2019-05-18T22:41:21.307Z,16.37
2019-05-18T22:43:47.232Z,16.31
2019-05-18T22:46:13.082Z,16.44
2019-05-18T22:48:41.602Z,16.31
2019-05-18T22:51:06.762Z,16.25
2019-05-18T22:53:32.605Z,16.25
2019-05-18T22:55:58.507Z,16.31
2019-05-18T22:58:24.363Z,16.25
2019-05-18T23:00:50.211Z,16.31
2019-05-18T23:03:16.026Z,16.25
2019-05-18T23:05:41.863Z,16.19
2019-05-18T23:08:07.675Z,16.19
2019-05-18T23:10:33.511Z,16.12
2019-05-18T23:12:59.364Z,16.12
2019-05-18T23:15:25.312Z,16.00
2019-05-18T23:17:51.151Z,15.94
2019-05-18T23:20:16.984Z,15.88
2019-05-18T23:22:42.813Z,15.88
2019-05-18T23:25:08.769Z,15.88
2019-05-18T23:27:35.001Z,15.75
2019-05-18T23:30:01.047Z,15.88
2019-05-18T23:32:26.876Z,15.75
2019-05-18T23:34:52.756Z,15.81
2019-05-18T23:37:18.582Z,15.69
2019-05-18T23:39:44.454Z,15.81
2019-05-18T23:42:10.283Z,15.69
2019-05-18T23:44:36.154Z,15.81
2019-05-18T23:47:01.982Z,15.69
2019-05-18T23:49:27.825Z,15.69
2019-05-18T23:51:53.658Z,15.63
2019-05-18T23:54:19.568Z,15.56
2019-05-18T23:56:45.416Z,15.56
2019-05-18T23:59:11.275Z,15.56
